Corsica, South Dakota
Current Conditions -  °F | °C
As of 3:41 PM on Friday 24 Oct 2014 (Local Time) from KMHE Reporting Station
Haze Haze  
Wind Chill: 78°   Ceiling: Unl
Heat Index: 78°   Visibility: 1.7mi
Dew Point: 36°   Wind: 3mph
Humidity: 22%   Direction: 310°NW
Pressure: 29.9"   Gusts: NA
Location:  43.43°N, 98.41°W
Report Text: KMHE 242041Z AUTO 31003KT 1 3/4SM HZ CLR 26/02 A2990 RMK AO2 VIS 1 1/4V4 T02560022
Loading
Personal Weather Stations






























Interactive Weather Map
Tropical Storm Tracking
New forecast layout! Learn more

10-Day Weather Forecast

Advertisements
Track Severe Weather on mobile